sensor_id;sensor_type;location;lat;lon;timestamp;P1;durP1;ratioP1;P2;durP2;ratioP2
3841;SDS011;1936;47.074;15.336;2023-03-14T00:00:06;3.50;;;2.95;;
3841;SDS011;1936;47.074;15.336;2023-03-14T00:02:12;9.60;;;3.58;;
3841;SDS011;1936;47.074;15.336;2023-03-14T00:04:16;3.45;;;2.83;;
3841;SDS011;1936;47.074;15.336;2023-03-14T00:06:21;4.80;;;3.58;;
3841;SDS011;1936;47.074;15.336;2023-03-14T00:08:25;4.13;;;2.50;;
3841;SDS011;1936;47.074;15.336;2023-03-14T00:10:28;5.72;;;2.55;;
3841;SDS011;1936;47.074;15.336;2023-03-14T00:12:32;4.25;;;2.88;;
3841;SDS011;1936;47.074;15.336;2023-03-14T00:14:36;2.58;;;2.35;;
3841;SDS011;1936;47.074;15.336;2023-03-14T00:16:40;4.63;;;3.97;;
3841;SDS011;1936;47.074;15.336;2023-03-14T00:18:44;3.83;;;2.78;;
3841;SDS011;1936;47.074;15.336;2023-03-14T00:20:47;3.35;;;2.13;;
3841;SDS011;1936;47.074;15.336;2023-03-14T00:22:52;6.05;;;2.90;;
3841;SDS011;1936;47.074;15.336;2023-03-14T00:24:56;3.88;;;2.35;;
3841;SDS011;1936;47.074;15.336;2023-03-14T00:26:59;4.28;;;3.28;;
3841;SDS011;1936;47.074;15.336;2023-03-14T00:29:03;4.68;;;2.28;;
3841;SDS011;1936;47.074;15.336;2023-03-14T00:31:07;5.13;;;2.63;;
3841;SDS011;1936;47.074;15.336;2023-03-14T00:33:12;4.65;;;2.58;;
3841;SDS011;1936;47.074;15.336;2023-03-14T00:35:16;3.38;;;2.00;;
3841;SDS011;1936;47.074;15.336;2023-03-14T00:37:19;4.45;;;2.67;;
3841;SDS011;1936;47.074;15.336;2023-03-14T00:39:25;7.97;;;3.30;;
3841;SDS011;1936;47.074;15.336;2023-03-14T00:41:28;2.90;;;2.58;;
3841;SDS011;1936;47.074;15.336;2023-03-14T00:43:32;4.60;;;2.70;;
3841;SDS011;1936;47.074;15.336;2023-03-14T00:45:35;4.65;;;3.22;;
3841;SDS011;1936;47.074;15.336;2023-03-14T00:47:39;2.85;;;2.03;;
3841;SDS011;1936;47.074;15.336;2023-03-14T00:49:47;3.97;;;2.67;;
3841;SDS011;1936;47.074;15.336;2023-03-14T00:51:50;3.03;;;2.30;;
3841;SDS011;1936;47.074;15.336;2023-03-14T00:53:54;3.00;;;2.00;;
3841;SDS011;1936;47.074;15.336;2023-03-14T00:56:01;4.93;;;2.97;;
3841;SDS011;1936;47.074;15.336;2023-03-14T00:58:05;8.35;;;2.05;;
3841;SDS011;1936;47.074;15.336;2023-03-14T01:00:09;2.10;;;1.90;;
3841;SDS011;1936;47.074;15.336;2023-03-14T01:02:14;3.40;;;2.20;;
3841;SDS011;1936;47.074;15.336;2023-03-14T01:04:17;3.42;;;1.85;;
3841;SDS011;1936;47.074;15.336;2023-03-14T01:06:22;6.00;;;2.40;;
3841;SDS011;1936;47.074;15.336;2023-03-14T01:08:27;3.85;;;1.65;;
3841;SDS011;1936;47.074;15.336;2023-03-14T01:10:30;5.65;;;2.15;;
3841;SDS011;1936;47.074;15.336;2023-03-14T01:12:36;3.30;;;1.90;;
3841;SDS011;1936;47.074;15.336;2023-03-14T01:14:40;2.10;;;1.90;;
3841;SDS011;1936;47.074;15.336;2023-03-14T01:16:43;4.35;;;2.00;;
3841;SDS011;1936;47.074;15.336;2023-03-14T01:18:47;2.70;;;2.00;;
3841;SDS011;1936;47.074;15.336;2023-03-14T01:20:51;1.92;;;1.73;;
3841;SDS011;1936;47.074;15.336;2023-03-14T01:22:55;2.60;;;1.50;;
3841;SDS011;1936;47.074;15.336;2023-03-14T01:24:58;1.90;;;1.70;;
3841;SDS011;1936;47.074;15.336;2023-03-14T01:27:02;2.58;;;1.35;;
3841;SDS011;1936;47.074;15.336;2023-03-14T01:29:07;1.20;;;0.90;;
3841;SDS011;1936;47.074;15.336;2023-03-14T01:31:10;2.92;;;1.23;;
3841;SDS011;1936;47.074;15.336;2023-03-14T01:33:14;1.95;;;0.88;;
3841;SDS011;1936;47.074;15.336;2023-03-14T01:35:17;3.90;;;1.35;;
3841;SDS011;1936;47.074;15.336;2023-03-14T01:37:21;1.75;;;1.40;;
3841;SDS011;1936;47.074;15.336;2023-03-14T01:39:25;2.22;;;1.55;;
3841;SDS011;1936;47.074;15.336;2023-03-14T01:41:29;1.10;;;1.00;;
3841;SDS011;1936;47.074;15.336;2023-03-14T01:43:33;1.98;;;1.30;;
3841;SDS011;1936;47.074;15.336;2023-03-14T01:48:27;3.63;;;1.90;;
3841;SDS011;1936;47.074;15.336;2023-03-14T01:50:34;6.32;;;1.50;;
3841;SDS011;1936;47.074;15.336;2023-03-14T01:52:38;4.60;;;2.00;;
3841;SDS011;1936;47.074;15.336;2023-03-14T01:54:46;4.47;;;1.52;;
3841;SDS011;1936;47.074;15.336;2023-03-14T01:56:53;1.85;;;1.45;;
3841;SDS011;1936;47.074;15.336;2023-03-14T01:59:00;4.40;;;2.25;;
3841;SDS011;1936;47.074;15.336;2023-03-14T02:01:09;2.22;;;1.75;;
3841;SDS011;1936;47.074;15.336;2023-03-14T02:03:14;2.40;;;1.30;;
3841;SDS011;1936;47.074;15.336;2023-03-14T02:05:22;5.72;;;1.20;;
3841;SDS011;1936;47.074;15.336;2023-03-14T02:07:30;2.65;;;1.35;;
3841;SDS011;1936;47.074;15.336;2023-03-14T02:09:39;4.88;;;1.48;;
3841;SDS011;1936;47.074;15.336;2023-03-14T02:11:44;2.70;;;1.83;;
3841;SDS011;1936;47.074;15.336;2023-03-14T02:13:48;4.03;;;1.35;;
3841;SDS011;1936;47.074;15.336;2023-03-14T02:15:52;2.28;;;1.80;;
3841;SDS011;1936;47.074;15.336;2023-03-14T02:17:56;2.53;;;1.70;;
3841;SDS011;1936;47.074;15.336;2023-03-14T02:20:07;3.72;;;1.75;;
3841;SDS011;1936;47.074;15.336;2023-03-14T02:22:22;2.30;;;1.17;;
3841;SDS011;1936;47.074;15.336;2023-03-14T02:24:27;2.45;;;1.48;;
3841;SDS011;1936;47.074;15.336;2023-03-14T02:26:38;1.98;;;1.27;;
3841;SDS011;1936;47.074;15.336;2023-03-14T02:28:47;1.63;;;1.52;;
3841;SDS011;1936;47.074;15.336;2023-03-14T02:30:52;1.75;;;1.30;;
3841;SDS011;1936;47.074;15.336;2023-03-14T02:32:57;2.40;;;1.40;;
3841;SDS011;1936;47.074;15.336;2023-03-14T02:35:05;6.85;;;1.90;;
3841;SDS011;1936;47.074;15.336;2023-03-14T02:37:12;1.20;;;1.10;;
3841;SDS011;1936;47.074;15.336;2023-03-14T02:39:19;1.75;;;1.65;;
3841;SDS011;1936;47.074;15.336;2023-03-14T02:41:30;2.80;;;1.23;;
3841;SDS011;1936;47.074;15.336;2023-03-14T02:43:34;3.50;;;1.30;;
3841;SDS011;1936;47.074;15.336;2023-03-14T02:45:40;1.30;;;1.10;;
3841;SDS011;1936;47.074;15.336;2023-03-14T02:47:46;1.95;;;1.73;;
3841;SDS011;1936;47.074;15.336;2023-03-14T02:49:56;2.45;;;1.67;;
3841;SDS011;1936;47.074;15.336;2023-03-14T02:52:04;2.08;;;1.40;;
3841;SDS011;1936;47.074;15.336;2023-03-14T02:54:08;8.00;;;1.42;;
3841;SDS011;1936;47.074;15.336;2023-03-14T02:56:12;1.50;;;1.35;;
3841;SDS011;1936;47.074;15.336;2023-03-14T02:58:16;1.50;;;1.40;;
3841;SDS011;1936;47.074;15.336;2023-03-14T03:00:20;2.30;;;1.00;;
3841;SDS011;1936;47.074;15.336;2023-03-14T03:02:25;3.30;;;1.20;;
3841;SDS011;1936;47.074;15.336;2023-03-14T03:04:29;1.70;;;1.35;;
3841;SDS011;1936;47.074;15.336;2023-03-14T03:06:32;1.80;;;1.30;;
3841;SDS011;1936;47.074;15.336;2023-03-14T03:08:36;2.78;;;1.70;;
3841;SDS011;1936;47.074;15.336;2023-03-14T03:10:40;1.02;;;0.93;;
3841;SDS011;1936;47.074;15.336;2023-03-14T03:12:43;2.47;;;1.55;;
3841;SDS011;1936;47.074;15.336;2023-03-14T03:14:47;6.35;;;1.60;;
3841;SDS011;1936;47.074;15.336;2023-03-14T03:16:51;6.38;;;1.83;;
3841;SDS011;1936;47.074;15.336;2023-03-14T03:18:56;2.65;;;1.50;;
3841;SDS011;1936;47.074;15.336;2023-03-14T03:21:00;1.58;;;1.48;;
3841;SDS011;1936;47.074;15.336;2023-03-14T03:23:04;1.65;;;1.55;;
3841;SDS011;1936;47.074;15.336;2023-03-14T03:25:08;2.88;;;1.50;;
3841;SDS011;1936;47.074;15.336;2023-03-14T03:27:13;1.75;;;1.30;;
3841;SDS011;1936;47.074;15.336;2023-03-14T03:29:16;1.50;;;1.05;;
3841;SDS011;1936;47.074;15.336;2023-03-14T03:31:20;3.83;;;1.65;;
3841;SDS011;1936;47.074;15.336;2023-03-14T03:33:24;1.40;;;1.30;;
3841;SDS011;1936;47.074;15.336;2023-03-14T03:35:29;1.80;;;1.13;;
3841;SDS011;1936;47.074;15.336;2023-03-14T03:37:32;3.65;;;1.95;;
3841;SDS011;1936;47.074;15.336;2023-03-14T03:39:37;3.58;;;1.70;;
3841;SDS011;1936;47.074;15.336;2023-03-14T03:41:40;5.47;;;1.40;;
3841;SDS011;1936;47.074;15.336;2023-03-14T03:43:44;1.77;;;1.00;;
3841;SDS011;1936;47.074;15.336;2023-03-14T03:45:47;5.38;;;1.60;;
3841;SDS011;1936;47.074;15.336;2023-03-14T03:47:51;2.05;;;1.58;;
3841;SDS011;1936;47.074;15.336;2023-03-14T03:49:55;4.90;;;2.45;;
3841;SDS011;1936;47.074;15.336;2023-03-14T03:52:00;3.38;;;1.55;;
3841;SDS011;1936;47.074;15.336;2023-03-14T03:54:04;4.55;;;1.80;;
3841;SDS011;1936;47.074;15.336;2023-03-14T03:56:08;1.95;;;1.75;;
3841;SDS011;1936;47.074;15.336;2023-03-14T03:58:12;2.55;;;1.65;;
3841;SDS011;1936;47.074;15.336;2023-03-14T04:00:16;2.95;;;1.60;;
3841;SDS011;1936;47.074;15.336;2023-03-14T04:02:20;1.70;;;1.60;;
3841;SDS011;1936;47.074;15.336;2023-03-14T04:04:24;2.22;;;1.83;;
3841;SDS011;1936;47.074;15.336;2023-03-14T04:06:27;3.42;;;1.90;;
3841;SDS011;1936;47.074;15.336;2023-03-14T04:08:33;5.35;;;2.90;;
3841;SDS011;1936;47.074;15.336;2023-03-14T04:10:37;10.13;;;2.38;;
3841;SDS011;1936;47.074;15.336;2023-03-14T04:12:40;2.75;;;2.10;;
3841;SDS011;1936;47.074;15.336;2023-03-14T04:14:46;3.05;;;1.75;;
3841;SDS011;1936;47.074;15.336;2023-03-14T04:16:50;2.65;;;2.10;;
3841;SDS011;1936;47.074;15.336;2023-03-14T04:18:54;2.53;;;1.90;;
3841;SDS011;1936;47.074;15.336;2023-03-14T04:20:57;3.78;;;2.70;;
3841;SDS011;1936;47.074;15.336;2023-03-14T04:23:01;6.32;;;1.98;;
3841;SDS011;1936;47.074;15.336;2023-03-14T04:25:06;3.88;;;2.20;;
3841;SDS011;1936;47.074;15.336;2023-03-14T04:27:10;2.67;;;2.47;;
3841;SDS011;1936;47.074;15.336;2023-03-14T04:29:16;3.22;;;1.80;;
3841;SDS011;1936;47.074;15.336;2023-03-14T04:31:20;3.78;;;1.55;;
3841;SDS011;1936;47.074;15.336;2023-03-14T04:33:24;4.22;;;2.00;;
3841;SDS011;1936;47.074;15.336;2023-03-14T04:35:29;2.00;;;1.90;;
3841;SDS011;1936;47.074;15.336;2023-03-14T04:37:33;3.65;;;1.70;;
3841;SDS011;1936;47.074;15.336;2023-03-14T04:39:37;2.53;;;1.83;;
3841;SDS011;1936;47.074;15.336;2023-03-14T04:41:42;2.33;;;2.00;;
3841;SDS011;1936;47.074;15.336;2023-03-14T04:43:47;2.85;;;1.70;;
3841;SDS011;1936;47.074;15.336;2023-03-14T04:45:51;3.22;;;1.80;;
3841;SDS011;1936;47.074;15.336;2023-03-14T04:47:55;4.15;;;2.15;;
3841;SDS011;1936;47.074;15.336;2023-03-14T04:49:59;4.05;;;1.73;;
3841;SDS011;1936;47.074;15.336;2023-03-14T04:52:03;1.67;;;1.58;;
3841;SDS011;1936;47.074;15.336;2023-03-14T04:54:08;1.95;;;1.75;;
3841;SDS011;1936;47.074;15.336;2023-03-14T04:56:12;3.50;;;2.20;;
3841;SDS011;1936;47.074;15.336;2023-03-14T04:58:17;3.67;;;1.88;;
3841;SDS011;1936;47.074;15.336;2023-03-14T05:00:20;3.80;;;2.33;;
3841;SDS011;1936;47.074;15.336;2023-03-14T05:02:24;2.83;;;2.45;;
3841;SDS011;1936;47.074;15.336;2023-03-14T05:04:28;3.17;;;1.90;;
3841;SDS011;1936;47.074;15.336;2023-03-14T05:06:34;8.63;;;2.83;;
3841;SDS011;1936;47.074;15.336;2023-03-14T05:08:37;6.72;;;2.22;;
3841;SDS011;1936;47.074;15.336;2023-03-14T05:10:41;5.15;;;1.30;;
3841;SDS011;1936;47.074;15.336;2023-03-14T05:12:44;2.38;;;2.15;;
3841;SDS011;1936;47.074;15.336;2023-03-14T05:14:49;5.57;;;2.00;;
3841;SDS011;1936;47.074;15.336;2023-03-14T05:16:53;3.10;;;1.63;;
3841;SDS011;1936;47.074;15.336;2023-03-14T05:18:56;2.50;;;2.17;;
3841;SDS011;1936;47.074;15.336;2023-03-14T05:21:00;2.38;;;1.95;;
3841;SDS011;1936;47.074;15.336;2023-03-14T05:23:04;6.30;;;2.00;;
3841;SDS011;1936;47.074;15.336;2023-03-14T05:25:08;4.57;;;1.95;;
3841;SDS011;1936;47.074;15.336;2023-03-14T05:27:12;1.88;;;1.75;;
3841;SDS011;1936;47.074;15.336;2023-03-14T05:29:16;3.40;;;1.85;;
3841;SDS011;1936;47.074;15.336;2023-03-14T05:31:21;1.65;;;1.55;;
3841;SDS011;1936;47.074;15.336;2023-03-14T05:33:25;2.03;;;1.70;;
3841;SDS011;1936;47.074;15.336;2023-03-14T05:35:28;1.80;;;1.42;;
3841;SDS011;1936;47.074;15.336;2023-03-14T05:37:32;6.45;;;1.50;;
3841;SDS011;1936;47.074;15.336;2023-03-14T05:39:36;1.65;;;1.30;;
3841;SDS011;1936;47.074;15.336;2023-03-14T05:41:40;4.72;;;2.38;;
3841;SDS011;1936;47.074;15.336;2023-03-14T05:43:43;1.85;;;1.50;;
3841;SDS011;1936;47.074;15.336;2023-03-14T05:45:47;1.55;;;1.45;;
3841;SDS011;1936;47.074;15.336;2023-03-14T05:47:52;3.20;;;1.35;;
3841;SDS011;1936;47.074;15.336;2023-03-14T05:49:55;5.57;;;1.38;;
3841;SDS011;1936;47.074;15.336;2023-03-14T05:51:59;2.65;;;1.60;;
3841;SDS011;1936;47.074;15.336;2023-03-14T05:54:03;2.80;;;1.40;;
3841;SDS011;1936;47.074;15.336;2023-03-14T05:56:07;2.13;;;1.40;;
3841;SDS011;1936;47.074;15.336;2023-03-14T05:58:11;3.85;;;1.27;;
3841;SDS011;1936;47.074;15.336;2023-03-14T06:00:15;1.35;;;1.23;;
3841;SDS011;1936;47.074;15.336;2023-03-14T06:02:19;3.92;;;2.03;;
3841;SDS011;1936;47.074;15.336;2023-03-14T06:04:24;3.27;;;1.37;;
3841;SDS011;1936;47.074;15.336;2023-03-14T06:06:29;2.88;;;1.75;;
3841;SDS011;1936;47.074;15.336;2023-03-14T06:08:32;2.25;;;1.45;;
3841;SDS011;1936;47.074;15.336;2023-03-14T06:10:36;2.88;;;1.33;;
3841;SDS011;1936;47.074;15.336;2023-03-14T06:12:40;7.47;;;1.60;;
3841;SDS011;1936;47.074;15.336;2023-03-14T06:14:43;4.47;;;1.40;;
3841;SDS011;1936;47.074;15.336;2023-03-14T06:16:47;5.07;;;1.75;;
3841;SDS011;1936;47.074;15.336;2023-03-14T06:18:50;2.67;;;1.40;;
3841;SDS011;1936;47.074;15.336;2023-03-14T06:20:56;2.07;;;1.47;;
3841;SDS011;1936;47.074;15.336;2023-03-14T06:22:59;3.50;;;2.57;;
3841;SDS011;1936;47.074;15.336;2023-03-14T06:25:03;3.53;;;2.97;;
3841;SDS011;1936;47.074;15.336;2023-03-14T06:27:07;7.45;;;2.42;;
3841;SDS011;1936;47.074;15.336;2023-03-14T06:29:10;2.75;;;2.55;;
3841;SDS011;1936;47.074;15.336;2023-03-14T06:31:14;2.13;;;1.93;;
3841;SDS011;1936;47.074;15.336;2023-03-14T06:33:18;6.15;;;2.65;;
3841;SDS011;1936;47.074;15.336;2023-03-14T06:35:22;2.58;;;2.25;;
3841;SDS011;1936;47.074;15.336;2023-03-14T06:37:27;2.35;;;1.95;;
3841;SDS011;1936;47.074;15.336;2023-03-14T06:39:31;3.87;;;2.60;;
3841;SDS011;1936;47.074;15.336;2023-03-14T06:41:35;2.85;;;2.58;;
3841;SDS011;1936;47.074;15.336;2023-03-14T06:43:38;1.70;;;1.53;;
3841;SDS011;1936;47.074;15.336;2023-03-14T06:45:42;2.80;;;1.63;;
3841;SDS011;1936;47.074;15.336;2023-03-14T06:47:45;1.90;;;1.40;;
3841;SDS011;1936;47.074;15.336;2023-03-14T06:49:49;3.00;;;2.37;;
3841;SDS011;1936;47.074;15.336;2023-03-14T06:51:53;3.83;;;2.17;;
3841;SDS011;1936;47.074;15.336;2023-03-14T06:53:59;1.60;;;1.47;;
3841;SDS011;1936;47.074;15.336;2023-03-14T06:56:02;4.07;;;1.73;;
3841;SDS011;1936;47.074;15.336;2023-03-14T06:58:07;2.80;;;1.50;;
3841;SDS011;1936;47.074;15.336;2023-03-14T07:00:10;2.80;;;2.30;;
3841;SDS011;1936;47.074;15.336;2023-03-14T07:02:15;2.03;;;1.53;;
3841;SDS011;1936;47.074;15.336;2023-03-14T07:04:19;3.93;;;1.40;;
3841;SDS011;1936;47.074;15.336;2023-03-14T07:06:23;3.73;;;2.47;;
3841;SDS011;1936;47.074;15.336;2023-03-14T07:08:30;11.77;;;5.53;;
3841;SDS011;1936;47.074;15.336;2023-03-14T07:10:35;5.80;;;2.57;;
3841;SDS011;1936;47.074;15.336;2023-03-14T07:12:39;5.00;;;2.50;;
3841;SDS011;1936;47.074;15.336;2023-03-14T07:14:43;3.83;;;1.63;;
3841;SDS011;1936;47.074;15.336;2023-03-14T07:16:50;4.93;;;2.20;;
3841;SDS011;1936;47.074;15.336;2023-03-14T07:18:54;3.03;;;2.37;;
3841;SDS011;1936;47.074;15.336;2023-03-14T07:20:58;3.50;;;2.53;;
3841;SDS011;1936;47.074;15.336;2023-03-14T07:23:01;4.57;;;2.60;;
3841;SDS011;1936;47.074;15.336;2023-03-14T07:25:06;3.23;;;2.07;;
3841;SDS011;1936;47.074;15.336;2023-03-14T07:27:13;7.10;;;3.23;;
3841;SDS011;1936;47.074;15.336;2023-03-14T07:29:17;2.00;;;1.60;;
3841;SDS011;1936;47.074;15.336;2023-03-14T07:31:20;6.27;;;2.63;;
3841;SDS011;1936;47.074;15.336;2023-03-14T07:33:24;3.07;;;2.77;;
3841;SDS011;1936;47.074;15.336;2023-03-14T07:35:28;7.10;;;2.70;;
3841;SDS011;1936;47.074;15.336;2023-03-14T07:37:31;4.30;;;2.73;;
3841;SDS011;1936;47.074;15.336;2023-03-14T07:39:35;3.63;;;2.40;;
3841;SDS011;1936;47.074;15.336;2023-03-14T07:41:39;6.40;;;2.70;;
3841;SDS011;1936;47.074;15.336;2023-03-14T07:43:44;4.30;;;1.90;;
3841;SDS011;1936;47.074;15.336;2023-03-14T07:45:47;5.23;;;2.37;;
3841;SDS011;1936;47.074;15.336;2023-03-14T07:47:56;6.87;;;1.97;;
3841;SDS011;1936;47.074;15.336;2023-03-14T07:50:00;5.70;;;2.30;;
3841;SDS011;1936;47.074;15.336;2023-03-14T07:52:03;3.80;;;2.27;;
3841;SDS011;1936;47.074;15.336;2023-03-14T07:54:07;2.70;;;1.70;;
3841;SDS011;1936;47.074;15.336;2023-03-14T07:56:11;2.73;;;1.80;;
3841;SDS011;1936;47.074;15.336;2023-03-14T07:58:14;3.20;;;1.73;;
3841;SDS011;1936;47.074;15.336;2023-03-14T08:00:20;3.03;;;1.90;;
3841;SDS011;1936;47.074;15.336;2023-03-14T08:02:23;3.37;;;1.90;;
3841;SDS011;1936;47.074;15.336;2023-03-14T08:04:27;4.70;;;2.33;;
3841;SDS011;1936;47.074;15.336;2023-03-14T08:06:31;3.30;;;2.07;;
3841;SDS011;1936;47.074;15.336;2023-03-14T08:08:34;4.47;;;2.17;;
3841;SDS011;1936;47.074;15.336;2023-03-14T08:10:38;2.60;;;1.63;;
3841;SDS011;1936;47.074;15.336;2023-03-14T08:12:41;3.10;;;1.53;;
3841;SDS011;1936;47.074;15.336;2023-03-14T08:14:45;4.60;;;2.07;;
3841;SDS011;1936;47.074;15.336;2023-03-14T08:16:50;3.33;;;1.80;;
3841;SDS011;1936;47.074;15.336;2023-03-14T08:18:54;4.40;;;2.30;;
3841;SDS011;1936;47.074;15.336;2023-03-14T08:20:58;3.20;;;2.00;;
3841;SDS011;1936;47.074;15.336;2023-03-14T08:23:02;4.73;;;1.43;;
3841;SDS011;1936;47.074;15.336;2023-03-14T08:25:06;5.03;;;2.10;;
3841;SDS011;1936;47.074;15.336;2023-03-14T08:27:10;3.10;;;1.57;;
3841;SDS011;1936;47.074;15.336;2023-03-14T08:29:15;5.87;;;2.00;;
3841;SDS011;1936;47.074;15.336;2023-03-14T08:31:19;6.57;;;2.10;;
3841;SDS011;1936;47.074;15.336;2023-03-14T08:33:24;2.50;;;1.67;;
3841;SDS011;1936;47.074;15.336;2023-03-14T08:35:28;2.73;;;1.47;;
3841;SDS011;1936;47.074;15.336;2023-03-14T08:37:31;3.80;;;2.10;;
3841;SDS011;1936;47.074;15.336;2023-03-14T08:39:35;3.20;;;1.93;;
3841;SDS011;1936;47.074;15.336;2023-03-14T08:41:39;2.83;;;2.23;;
3841;SDS011;1936;47.074;15.336;2023-03-14T08:43:44;3.80;;;2.03;;
3841;SDS011;1936;47.074;15.336;2023-03-14T08:45:48;4.93;;;2.20;;
3841;SDS011;1936;47.074;15.336;2023-03-14T08:47:51;4.63;;;2.60;;
3841;SDS011;1936;47.074;15.336;2023-03-14T08:49:56;2.93;;;1.23;;
3841;SDS011;1936;47.074;15.336;2023-03-14T08:52:00;4.13;;;1.73;;
3841;SDS011;1936;47.074;15.336;2023-03-14T08:54:04;5.07;;;2.13;;
3841;SDS011;1936;47.074;15.336;2023-03-14T08:56:08;3.47;;;2.07;;
3841;SDS011;1936;47.074;15.336;2023-03-14T08:58:12;3.23;;;1.93;;
3841;SDS011;1936;47.074;15.336;2023-03-14T09:00:16;7.00;;;2.67;;
3841;SDS011;1936;47.074;15.336;2023-03-14T09:02:20;6.73;;;1.80;;
3841;SDS011;1936;47.074;15.336;2023-03-14T09:04:24;3.53;;;1.50;;
3841;SDS011;1936;47.074;15.336;2023-03-14T09:06:29;2.80;;;1.50;;
3841;SDS011;1936;47.074;15.336;2023-03-14T09:08:33;4.17;;;2.30;;
3841;SDS011;1936;47.074;15.336;2023-03-14T09:10:39;6.50;;;2.63;;
3841;SDS011;1936;47.074;15.336;2023-03-14T09:12:43;4.40;;;1.93;;
3841;SDS011;1936;47.074;15.336;2023-03-14T09:14:46;3.00;;;1.97;;
3841;SDS011;1936;47.074;15.336;2023-03-14T09:16:50;4.90;;;2.20;;
3841;SDS011;1936;47.074;15.336;2023-03-14T09:18:53;6.97;;;2.40;;
3841;SDS011;1936;47.074;15.336;2023-03-14T09:21:01;7.00;;;2.60;;
3841;SDS011;1936;47.074;15.336;2023-03-14T09:23:06;4.03;;;2.47;;
3841;SDS011;1936;47.074;15.336;2023-03-14T09:25:09;8.00;;;2.30;;
3841;SDS011;1936;47.074;15.336;2023-03-14T09:27:13;3.47;;;2.63;;
3841;SDS011;1936;47.074;15.336;2023-03-14T09:29:16;4.93;;;2.03;;
3841;SDS011;1936;47.074;15.336;2023-03-14T09:31:21;4.13;;;2.07;;
3841;SDS011;1936;47.074;15.336;2023-03-14T09:33:25;7.17;;;2.47;;
3841;SDS011;1936;47.074;15.336;2023-03-14T09:35:28;7.57;;;2.20;;
3841;SDS011;1936;47.074;15.336;2023-03-14T09:37:32;3.17;;;2.80;;
3841;SDS011;1936;47.074;15.336;2023-03-14T09:39:37;5.80;;;2.70;;
3841;SDS011;1936;47.074;15.336;2023-03-14T09:41:41;4.43;;;2.20;;
3841;SDS011;1936;47.074;15.336;2023-03-14T09:43:47;8.50;;;2.00;;
3841;SDS011;1936;47.074;15.336;2023-03-14T09:45:52;4.93;;;2.10;;
3841;SDS011;1936;47.074;15.336;2023-03-14T09:47:57;6.50;;;2.70;;
3841;SDS011;1936;47.074;15.336;2023-03-14T09:50:01;6.83;;;2.50;;
3841;SDS011;1936;47.074;15.336;2023-03-14T09:52:10;6.83;;;2.50;;
3841;SDS011;1936;47.074;15.336;2023-03-14T09:54:20;8.17;;;3.00;;
3841;SDS011;1936;47.074;15.336;2023-03-14T09:56:35;5.30;;;2.83;;
3841;SDS011;1936;47.074;15.336;2023-03-14T09:58:39;5.33;;;2.47;;
3841;SDS011;1936;47.074;15.336;2023-03-14T10:00:44;4.33;;;1.77;;
3841;SDS011;1936;47.074;15.336;2023-03-14T10:02:50;4.40;;;2.10;;
3841;SDS011;1936;47.074;15.336;2023-03-14T10:04:56;5.67;;;2.83;;
3841;SDS011;1936;47.074;15.336;2023-03-14T10:07:00;2.80;;;1.90;;
3841;SDS011;1936;47.074;15.336;2023-03-14T10:09:05;1.80;;;1.40;;
3841;SDS011;1936;47.074;15.336;2023-03-14T10:11:13;3.77;;;1.60;;
3841;SDS011;1936;47.074;15.336;2023-03-14T10:13:20;5.57;;;1.90;;
3841;SDS011;1936;47.074;15.336;2023-03-14T10:15:26;3.20;;;2.00;;
3841;SDS011;1936;47.074;15.336;2023-03-14T10:17:37;7.33;;;3.20;;
3841;SDS011;1936;47.074;15.336;2023-03-14T10:19:52;8.37;;;1.87;;
3841;SDS011;1936;47.074;15.336;2023-03-14T10:21:57;3.30;;;2.27;;
3841;SDS011;1936;47.074;15.336;2023-03-14T10:24:08;5.90;;;1.90;;
3841;SDS011;1936;47.074;15.336;2023-03-14T10:26:18;3.50;;;1.40;;
3841;SDS011;1936;47.074;15.336;2023-03-14T10:28:31;4.83;;;1.47;;
3841;SDS011;1936;47.074;15.336;2023-03-14T10:30:39;6.37;;;1.43;;
3841;SDS011;1936;47.074;15.336;2023-03-14T10:32:47;2.83;;;1.50;;
3841;SDS011;1936;47.074;15.336;2023-03-14T10:35:04;2.77;;;0.70;;
3841;SDS011;1936;47.074;15.336;2023-03-14T10:37:21;2.77;;;0.70;;
3841;SDS011;1936;47.074;15.336;2023-03-14T10:39:35;1.33;;;0.50;;
3841;SDS011;1936;47.074;15.336;2023-03-14T10:41:46;2.73;;;0.60;;
3841;SDS011;1936;47.074;15.336;2023-03-14T10:43:52;1.53;;;0.60;;
3841;SDS011;1936;47.074;15.336;2023-03-14T10:46:00;0.70;;;0.40;;
3841;SDS011;1936;47.074;15.336;2023-03-14T10:48:19;2.00;;;0.50;;
3841;SDS011;1936;47.074;15.336;2023-03-14T10:50:25;0.70;;;0.40;;
3841;SDS011;1936;47.074;15.336;2023-03-14T10:52:29;0.70;;;0.50;;
3841;SDS011;1936;47.074;15.336;2023-03-14T10:54:54;1.10;;;0.77;;
3841;SDS011;1936;47.074;15.336;2023-03-14T10:57:01;0.90;;;0.50;;
3841;SDS011;1936;47.074;15.336;2023-03-14T10:59:12;2.17;;;0.60;;
3841;SDS011;1936;47.074;15.336;2023-03-14T11:01:29;2.07;;;0.50;;
3841;SDS011;1936;47.074;15.336;2023-03-14T11:03:42;1.20;;;0.40;;
3841;SDS011;1936;47.074;15.336;2023-03-14T11:05:56;0.97;;;0.40;;
3841;SDS011;1936;47.074;15.336;2023-03-14T11:08:02;1.57;;;0.57;;
3841;SDS011;1936;47.074;15.336;2023-03-14T11:10:14;0.93;;;0.53;;
3841;SDS011;1936;47.074;15.336;2023-03-14T11:12:32;1.07;;;0.43;;
3841;SDS011;1936;47.074;15.336;2023-03-14T11:14:46;0.67;;;0.40;;
3841;SDS011;1936;47.074;15.336;2023-03-14T11:16:57;2.80;;;0.40;;
3841;SDS011;1936;47.074;15.336;2023-03-14T11:19:22;2.10;;;0.40;;
3841;SDS011;1936;47.074;15.336;2023-03-14T11:21:48;1.00;;;0.40;;
3841;SDS011;1936;47.074;15.336;2023-03-14T11:24:02;4.70;;;0.40;;
3841;SDS011;1936;47.074;15.336;2023-03-14T11:26:25;0.80;;;0.40;;
3841;SDS011;1936;47.074;15.336;2023-03-14T11:28:34;0.70;;;0.40;;
3841;SDS011;1936;47.074;15.336;2023-03-14T11:30:42;0.80;;;0.50;;
3841;SDS011;1936;47.074;15.336;2023-03-14T11:32:55;0.60;;;0.40;;
3841;SDS011;1936;47.074;15.336;2023-03-14T11:35:08;0.60;;;0.33;;
3841;SDS011;1936;47.074;15.336;2023-03-14T11:37:23;0.60;;;0.40;;
3841;SDS011;1936;47.074;15.336;2023-03-14T11:39:35;0.80;;;0.40;;
3841;SDS011;1936;47.074;15.336;2023-03-14T11:41:43;0.90;;;0.40;;
3841;SDS011;1936;47.074;15.336;2023-03-14T11:43:52;2.80;;;0.50;;
3841;SDS011;1936;47.074;15.336;2023-03-14T11:46:01;0.80;;;0.50;;
3841;SDS011;1936;47.074;15.336;2023-03-14T11:48:24;0.67;;;0.40;;
3841;SDS011;1936;47.074;15.336;2023-03-14T11:50:37;0.70;;;0.40;;
3841;SDS011;1936;47.074;15.336;2023-03-14T11:52:46;0.70;;;0.40;;
3841;SDS011;1936;47.074;15.336;2023-03-14T11:54:57;1.37;;;0.70;;
3841;SDS011;1936;47.074;15.336;2023-03-14T11:57:09;0.80;;;0.50;;
3841;SDS011;1936;47.074;15.336;2023-03-14T11:59:19;3.17;;;0.40;;
3841;SDS011;1936;47.074;15.336;2023-03-14T12:01:28;0.80;;;0.40;;
3841;SDS011;1936;47.074;15.336;2023-03-14T12:03:45;0.97;;;0.60;;
3841;SDS011;1936;47.074;15.336;2023-03-14T12:05:59;1.00;;;0.50;;
3841;SDS011;1936;47.074;15.336;2023-03-14T12:10:52;1.47;;;0.60;;
3841;SDS011;1936;47.074;15.336;2023-03-14T12:12:59;0.80;;;0.47;;
3841;SDS011;1936;47.074;15.336;2023-03-14T12:15:03;0.90;;;0.40;;
3841;SDS011;1936;47.074;15.336;2023-03-14T12:17:17;0.90;;;0.50;;
3841;SDS011;1936;47.074;15.336;2023-03-14T12:19:27;1.30;;;0.50;;
3841;SDS011;1936;47.074;15.336;2023-03-14T12:21:43;1.37;;;0.50;;
3841;SDS011;1936;47.074;15.336;2023-03-14T12:23:52;0.90;;;0.40;;
3841;SDS011;1936;47.074;15.336;2023-03-14T12:26:07;1.73;;;0.50;;
3841;SDS011;1936;47.074;15.336;2023-03-14T12:28:17;1.63;;;0.60;;
3841;SDS011;1936;47.074;15.336;2023-03-14T12:30:26;1.23;;;0.70;;
3841;SDS011;1936;47.074;15.336;2023-03-14T12:32:31;0.60;;;0.40;;
3841;SDS011;1936;47.074;15.336;2023-03-14T12:34:38;0.70;;;0.47;;
3841;SDS011;1936;47.074;15.336;2023-03-14T12:39:15;0.90;;;0.50;;
3841;SDS011;1936;47.074;15.336;2023-03-14T12:41:26;2.40;;;2.00;;
3841;SDS011;1936;47.074;15.336;2023-03-14T12:43:37;1.60;;;0.40;;
3841;SDS011;1936;47.074;15.336;2023-03-14T12:45:41;0.70;;;0.40;;
3841;SDS011;1936;47.074;15.336;2023-03-14T12:48:09;1.27;;;0.60;;
3841;SDS011;1936;47.074;15.336;2023-03-14T12:50:23;0.70;;;0.40;;
3841;SDS011;1936;47.074;15.336;2023-03-14T12:52:30;1.37;;;0.50;;
3841;SDS011;1936;47.074;15.336;2023-03-14T12:54:42;0.80;;;0.50;;
3841;SDS011;1936;47.074;15.336;2023-03-14T12:56:54;1.10;;;0.43;;